sim
Sign-in with your pilot id or email,
or register
Callsign
Passwort

Schedule Details

Flight Number: RYR4283 (1)
Departure: Bratislava M. R. Stefanik Airport (LZIB) at 12:35
Arrival: Dublin Airport (EIDW) at 15:35
Route: Ryanair Passenger Schedule. Enter filed route here before submitting Pirep.

Weather Information
Getting current METAR information for LZIB 232130Z 36004KT CAVOK 13/10 Q1017
Getting current METAR information for EIDW 232130Z 21011KT 170V250 9999 FEW015 SCT021 BKN026 13/10 Q1001 NOSIG

Schedule Frequency

Route Map